Time;durP1;ratioP1;P1;durP2;ratioP2;P2;SDS_P1;SDS_P2;PMS_P1;PMS_P2;Temp;Humidity;BMP_temperature;BMP_pressure;BME280_temperature;BME280_humidity;BME280_pressure;Samples;Min_cycle;Max_cycle;Signal;HPM_P1;HPM_P2
2021/12/15 00:02:11;;;;;;;251.13;29.98;;;;;;;;;;4992921;28;20050;-75
2021/12/15 00:04:37;;;;;;;68.80;20.53;;;;;;;;;;4974508;28;20398;-76
2021/12/15 00:07:03;;;;;;;92.70;22.90;;;;;;;;;;4974029;28;20489;-76
2021/12/15 00:09:29;;;;;;;87.85;23.38;;;;;;;;;;4973828;28;20474;-76
2021/12/15 00:11:55;;;;;;;77.03;22.27;;;;;;;;;;4990870;28;20051;-76
2021/12/15 00:14:21;;;;;;;64.00;22.42;;;;;;;;;;4992996;28;20038;-76
2021/12/15 00:16:50;;;;;;;51.60;20.98;;;;;;;;;;4993349;28;20042;-76
2021/12/15 00:19:16;;;;;;;42.58;19.10;;;;;;;;;;4992936;28;20047;-76
2021/12/15 00:21:42;;;;;;;44.72;19.55;;;;;;;;;;4992779;28;20050;-76
2021/12/15 00:24:09;;;;;;;41.63;19.23;;;;;;;;;;4992916;28;20054;-76
2021/12/15 00:26:36;;;;;;;38.45;18.33;;;;;;;;;;4993264;28;20041;-76
2021/12/15 00:29:05;;;;;;;41.85;19.40;;;;;;;;;;4993276;28;20046;-76
2021/12/15 00:31:32;;;;;;;34.58;17.55;;;;;;;;;;4992914;28;20504;-76
2021/12/15 00:34:01;;;;;;;34.53;16.90;;;;;;;;;;4992969;28;20046;-75
2021/12/15 00:36:27;;;;;;;30.75;17.17;;;;;;;;;;4993112;28;20046;-75
2021/12/15 00:38:53;;;;;;;31.08;16.80;;;;;;;;;;4992846;28;20046;-75
2021/12/15 00:41:19;;;;;;;35.35;18.35;;;;;;;;;;4992533;28;20065;-76
2021/12/15 00:43:45;;;;;;;33.38;18.08;;;;;;;;;;4993101;28;20045;-76
2021/12/15 00:46:12;;;;;;;34.28;18.42;;;;;;;;;;4993219;28;20034;-76
2021/12/15 00:48:38;;;;;;;32.47;17.48;;;;;;;;;;4992990;28;20222;-76
2021/12/15 00:51:05;;;;;;;37.70;18.45;;;;;;;;;;4991719;28;20045;-76
2021/12/15 00:53:31;;;;;;;31.90;16.75;;;;;;;;;;4991152;28;20042;-76
2021/12/15 00:55:57;;;;;;;34.42;17.42;;;;;;;;;;4992754;28;20527;-76
2021/12/15 00:58:23;;;;;;;33.05;16.95;;;;;;;;;;4991078;28;20046;-76
2021/12/15 01:00:53;;;;;;;35.15;17.65;;;;;;;;;;4992358;28;20026;-76
2021/12/15 01:03:20;;;;;;;32.42;16.25;;;;;;;;;;4991580;28;20042;-76
2021/12/15 01:05:50;;;;;;;31.23;16.52;;;;;;;;;;4992565;28;20369;-76
2021/12/15 01:08:28;;;;;;;30.20;16.23;;;;;;;;;;4992217;28;20045;-76
2021/12/15 01:11:13;;;;;;;29.55;16.40;;;;;;;;;;4992008;28;20042;-76
2021/12/15 01:22:07;;;;;;;37.53;18.60;;;;;;;;;;4995298;28;20429;-77
2021/12/15 01:24:34;;;;;;;40.97;19.10;;;;;;;;;;4991397;28;20066;-76
2021/12/15 01:27:00;;;;;;;45.35;19.92;;;;;;;;;;4992011;28;20488;-76
2021/12/15 01:29:26;;;;;;;40.17;18.88;;;;;;;;;;4991923;28;20073;-76
2021/12/15 01:31:52;;;;;;;43.72;20.67;;;;;;;;;;4991134;28;20076;-76
2021/12/15 01:34:18;;;;;;;37.78;19.48;;;;;;;;;;4991798;28;20051;-76
2021/12/15 01:36:44;;;;;;;47.85;21.80;;;;;;;;;;4991361;28;20046;-76
2021/12/15 01:39:10;;;;;;;41.72;19.08;;;;;;;;;;4990551;28;20444;-76
2021/12/15 01:41:36;;;;;;;41.20;19.80;;;;;;;;;;4991993;28;20049;-76
2021/12/15 01:47:02;;;;;;;43.45;20.10;;;;;;;;;;4995793;28;20049;-77
2021/12/15 01:49:37;;;;;;;71.05;21.80;;;;;;;;;;4991461;28;20484;-77
2021/12/15 01:52:10;;;;;;;52.42;21.25;;;;;;;;;;4990992;28;20030;-77
2021/12/15 01:54:38;;;;;;;48.72;19.55;;;;;;;;;;4990931;28;20037;-77
2021/12/15 01:57:05;;;;;;;48.45;20.25;;;;;;;;;;4991201;28;20054;-77
2021/12/15 01:59:32;;;;;;;68.68;24.13;;;;;;;;;;4991969;28;20449;-77
2021/12/15 02:01:59;;;;;;;55.08;22.40;;;;;;;;;;4993721;28;20038;-77
2021/12/15 02:04:25;;;;;;;50.22;21.85;;;;;;;;;;5000203;28;20589;-76
2021/12/15 02:06:51;;;;;;;51.65;21.23;;;;;;;;;;4999627;28;20057;-77
2021/12/15 02:12:15;;;;;;;50.60;23.15;;;;;;;;;;5003284;28;20054;-77
2021/12/15 02:14:41;;;;;;;48.88;20.92;;;;;;;;;;5012895;28;20022;-76
2021/12/15 02:17:07;;;;;;;44.25;20.02;;;;;;;;;;5017724;28;20042;-77
2021/12/15 02:19:33;;;;;;;45.22;20.40;;;;;;;;;;5018463;28;20042;-76
2021/12/15 02:21:59;;;;;;;39.50;19.63;;;;;;;;;;5019405;28;20046;-76
2021/12/15 02:24:26;;;;;;;52.03;23.52;;;;;;;;;;5011741;28;20512;-76
2021/12/15 02:26:58;;;;;;;35.90;19.83;;;;;;;;;;5018623;28;20045;-77
2021/12/15 02:29:25;;;;;;;39.53;20.75;;;;;;;;;;5018300;28;20034;-75
2021/12/15 02:32:36;;;;;;;39.63;20.42;;;;;;;;;;5018216;28;20053;-77
2021/12/15 02:37:18;;;;;;;39.75;19.65;;;;;;;;;;5013585;28;20038;-78
2021/12/15 02:39:49;;;;;;;34.85;18.83;;;;;;;;;;5017169;28;20042;-76
2021/12/15 02:42:15;;;;;;;;;;;;;;;;;;5018382;28;20029;-77
2021/12/15 02:44:43;;;;;;;29.98;16.02;;;;;;;;;;5017254;28;20133;-75
2021/12/15 02:47:15;;;;;;;30.73;17.08;;;;;;;;;;5017375;28;20042;-75
2021/12/15 02:49:41;;;;;;;30.67;16.70;;;;;;;;;;5008071;28;20049;-77
2021/12/15 02:52:08;;;;;;;32.35;18.33;;;;;;;;;;4997445;28;20042;-76
2021/12/15 02:54:35;;;;;;;31.50;17.38;;;;;;;;;;4994579;28;20042;-76
2021/12/15 02:57:07;;;;;;;29.15;16.35;;;;;;;;;;4995749;28;20042;-76
2021/12/15 02:59:46;;;;;;;26.83;15.55;;;;;;;;;;4995956;28;20473;-76
2021/12/15 03:02:42;;;;;;;28.20;16.70;;;;;;;;;;4995370;28;20039;-76
2021/12/15 03:05:17;;;;;;;28.48;17.27;;;;;;;;;;4995180;28;20041;-76
2021/12/15 03:16:00;;;;;;;35.03;17.42;;;;;;;;;;5001158;28;20030;-76
2021/12/15 03:18:28;;;;;;;33.38;18.63;;;;;;;;;;4994785;28;20042;-76
2021/12/15 03:21:03;;;;;;;34.53;19.27;;;;;;;;;;4994888;28;20061;-75
2021/12/15 03:23:37;;;;;;;36.17;19.27;;;;;;;;;;4994639;28;20050;-76
2021/12/15 03:26:03;;;;;;;34.80;19.02;;;;;;;;;;4994348;28;20050;-75
2021/12/15 03:39:28;;;;;;;41.85;19.85;;;;;;;;;;4993561;28;20031;-76
2021/12/15 03:42:05;;;;;;;38.67;20.30;;;;;;;;;;4993740;28;20050;-76
2021/12/15 03:44:35;;;;;;;42.72;20.80;;;;;;;;;;4993687;28;20057;-76
2021/12/15 03:47:05;;;;;;;41.53;20.02;;;;;;;;;;4993536;28;20046;-76
2021/12/15 03:49:31;;;;;;;40.70;20.02;;;;;;;;;;4991925;28;20038;-77
2021/12/15 03:51:57;;;;;;;36.60;19.50;;;;;;;;;;4993165;28;20042;-76
2021/12/15 03:54:23;;;;;;;34.20;19.95;;;;;;;;;;4993125;28;20469;-77
2021/12/15 03:56:50;;;;;;;40.85;20.58;;;;;;;;;;4993168;28;20038;-77
2021/12/15 03:59:18;;;;;;;36.50;19.25;;;;;;;;;;4991810;28;20469;-77
2021/12/15 04:01:44;;;;;;;41.97;19.00;;;;;;;;;;4993389;28;20054;-76
2021/12/15 04:04:13;;;;;;;44.08;19.92;;;;;;;;;;4992554;28;20477;-77
2021/12/15 04:06:40;;;;;;;40.25;21.05;;;;;;;;;;4991421;28;20045;-77
2021/12/15 04:09:12;;;;;;;41.30;20.17;;;;;;;;;;4993109;28;20041;-76
2021/12/15 04:11:38;;;;;;;40.42;19.00;;;;;;;;;;4993201;28;20042;-77
2021/12/15 04:14:10;;;;;;;35.50;19.63;;;;;;;;;;4992696;28;20045;-77
2021/12/15 04:19:08;;;;;;;37.00;19.17;;;;;;;;;;4992785;28;19937;-76
2021/12/15 04:21:36;;;;;;;37.72;19.50;;;;;;;;;;4992635;28;20034;-76
2021/12/15 04:24:02;;;;;;;38.83;20.20;;;;;;;;;;4992404;28;20477;-76
2021/12/15 04:26:32;;;;;;;39.67;21.13;;;;;;;;;;4991912;28;20035;-76
2021/12/15 04:28:58;;;;;;;45.78;23.98;;;;;;;;;;4991342;28;20503;-76
2021/12/15 04:31:26;;;;;;;36.17;19.02;;;;;;;;;;4992841;28;20046;-76
2021/12/15 04:34:00;;;;;;;36.10;18.52;;;;;;;;;;4991367;28;20041;-76
2021/12/15 04:36:30;;;;;;;34.97;18.77;;;;;;;;;;4992321;28;20042;-76
2021/12/15 04:38:58;;;;;;;33.45;17.30;;;;;;;;;;4992564;28;20412;-76
2021/12/15 04:41:25;;;;;;;32.97;17.80;;;;;;;;;;4992382;28;20038;-76
2021/12/15 04:44:00;;;;;;;33.10;17.80;;;;;;;;;;4992362;28;20496;-76
2021/12/15 04:46:32;;;;;;;36.30;16.95;;;;;;;;;;4992570;28;20051;-76
2021/12/15 04:48:58;;;;;;;37.75;18.35;;;;;;;;;;4992201;28;20030;-76
2021/12/15 04:51:24;;;;;;;33.38;17.88;;;;;;;;;;4992105;28;20033;-76
2021/12/15 04:53:52;;;;;;;32.90;17.58;;;;;;;;;;4990896;28;20042;-76
2021/12/15 04:56:20;;;;;;;37.35;17.48;;;;;;;;;;4992537;28;20042;-77
2021/12/15 04:58:49;;;;;;;34.38;17.25;;;;;;;;;;4990863;28;20049;-77
2021/12/15 05:01:15;;;;;;;33.85;17.95;;;;;;;;;;4988634;28;20081;-77
2021/12/15 05:03:42;;;;;;;36.75;19.55;;;;;;;;;;4988660;28;20521;-77
2021/12/15 05:06:08;;;;;;;36.65;18.73;;;;;;;;;;4988653;28;20050;-76
2021/12/15 05:08:36;;;;;;;39.30;18.23;;;;;;;;;;4992079;28;20057;-77
2021/12/15 05:11:05;;;;;;;34.50;17.05;;;;;;;;;;4983025;28;20388;-77
2021/12/15 05:13:32;;;;;;;30.25;16.65;;;;;;;;;;4981568;28;20038;-77
2021/12/15 05:15:59;;;;;;;35.42;18.08;;;;;;;;;;4981787;28;20097;-77
2021/12/15 05:18:26;;;;;;;28.98;16.35;;;;;;;;;;4982207;28;20031;-77
2021/12/15 05:20:53;;;;;;;29.63;16.55;;;;;;;;;;4983742;28;20030;-77
2021/12/15 05:23:21;;;;;;;30.50;16.77;;;;;;;;;;4989789;28;20038;-77
2021/12/15 05:25:48;;;;;;;29.63;17.17;;;;;;;;;;4984840;28;20404;-77
2021/12/15 05:28:17;;;;;;;29.25;16.63;;;;;;;;;;4984631;28;20046;-78
2021/12/15 05:30:43;;;;;;;30.05;16.55;;;;;;;;;;4980061;28;20065;-76
2021/12/15 05:33:09;;;;;;;30.55;16.52;;;;;;;;;;4981071;28;20408;-76
2021/12/15 05:35:36;;;;;;;31.00;16.35;;;;;;;;;;4983417;28;20050;-75
2021/12/15 05:38:05;;;;;;;33.70;17.58;;;;;;;;;;4991426;28;20038;-75
2021/12/15 05:40:32;;;;;;;30.98;16.60;;;;;;;;;;4989997;28;20038;-75
2021/12/15 05:42:58;;;;;;;31.52;17.23;;;;;;;;;;4990020;28;20469;-75
2021/12/15 05:45:26;;;;;;;32.17;17.25;;;;;;;;;;4991463;28;20046;-75
2021/12/15 05:47:53;;;;;;;31.73;17.15;;;;;;;;;;4991502;28;20480;-75
2021/12/15 05:50:20;;;;;;;32.10;18.38;;;;;;;;;;4991846;28;20404;-75
2021/12/15 05:52:46;;;;;;;31.92;17.17;;;;;;;;;;4992145;28;20045;-71
2021/12/15 05:55:15;;;;;;;30.65;17.38;;;;;;;;;;4991193;28;20042;-79
2021/12/15 05:57:41;;;;;;;31.95;17.50;;;;;;;;;;4989572;28;20404;-79
2021/12/15 06:00:17;;;;;;;32.17;17.02;;;;;;;;;;4985798;28;20042;-79
2021/12/15 06:02:43;;;;;;;28.50;17.02;;;;;;;;;;4991136;28;20041;-79
2021/12/15 06:05:10;;;;;;;30.35;16.70;;;;;;;;;;4991049;28;20447;-78
2021/12/15 06:07:37;;;;;;;32.47;16.90;;;;;;;;;;4990556;28;20045;-78
2021/12/15 06:10:06;;;;;;;28.85;15.85;;;;;;;;;;4992190;28;20042;-77
2021/12/15 06:12:33;;;;;;;32.88;17.17;;;;;;;;;;4991622;28;20370;-77
2021/12/15 06:14:58;;;;;;;32.28;16.65;;;;;;;;;;4985352;28;20038;-77
2021/12/15 06:17:26;;;;;;;33.83;18.05;;;;;;;;;;4973886;28;20101;-76
2021/12/15 06:19:53;;;;;;;31.10;17.42;;;;;;;;;;4987621;28;20804;-77
2021/12/15 06:22:24;;;;;;;27.88;15.70;;;;;;;;;;4980422;28;20392;-75
2021/12/15 06:24:52;;;;;;;30.13;16.17;;;;;;;;;;4987570;28;20040;-75
2021/12/15 06:27:20;;;;;;;30.52;16.33;;;;;;;;;;4984739;28;20035;-75
2021/12/15 06:29:48;;;;;;;29.27;16.40;;;;;;;;;;4986667;28;20480;-74
2021/12/15 06:32:14;;;;;;;30.42;16.23;;;;;;;;;;4989796;28;20073;-78
2021/12/15 06:34:42;;;;;;;26.55;16.17;;;;;;;;;;4984397;28;20049;-78
2021/12/15 06:37:08;;;;;;;27.52;16.00;;;;;;;;;;4984839;28;20043;-78
2021/12/15 06:39:35;;;;;;;31.73;16.33;;;;;;;;;;4986911;28;20042;-82
2021/12/15 06:42:01;;;;;;;31.00;17.08;;;;;;;;;;4993207;28;20049;-79
2021/12/15 06:44:27;;;;;;;28.80;16.85;;;;;;;;;;5011305;28;20043;-78
2021/12/15 07:00:38;;;;;;;31.23;16.83;;;;;;;;;;4980711;28;20022;-78
2021/12/15 07:03:04;;;;;;;32.33;17.25;;;;;;;;;;4993804;28;20031;-75
2021/12/15 07:05:31;;;;;;;29.13;16.63;;;;;;;;;;4991416;28;20472;-75
2021/12/15 07:07:59;;;;;;;30.13;15.98;;;;;;;;;;4980354;28;20493;-76
2021/12/15 07:10:29;;;;;;;26.88;15.40;;;;;;;;;;4991763;28;20049;-78
2021/12/15 07:12:57;;;;;;;31.23;17.13;;;;;;;;;;4993905;28;20492;-78
2021/12/15 07:15:23;;;;;;;32.10;17.67;;;;;;;;;;4983787;28;20057;-78
2021/12/15 07:17:52;;;;;;;28.95;16.75;;;;;;;;;;4989482;28;20413;-77
2021/12/15 07:21:08;;;;;;;31.75;17.33;;;;;;;;;;4978088;28;20051;-76
2021/12/15 07:23:16;;;;;;;30.42;16.67;;;;;;;;;;4977736;28;20046;-81
2021/12/15 07:25:43;;;;;;;29.30;16.60;;;;;;;;;;4992376;28;20134;-80
2021/12/15 07:28:10;;;;;;;31.02;17.90;;;;;;;;;;4992173;28;20555;-80
2021/12/15 07:30:37;;;;;;;30.70;16.75;;;;;;;;;;4987755;28;20046;-80
2021/12/15 07:33:04;;;;;;;26.20;15.15;;;;;;;;;;4982678;28;20042;-80
2021/12/15 07:35:31;;;;;;;28.58;16.48;;;;;;;;;;4994163;28;20047;-79
2021/12/15 07:37:57;;;;;;;28.45;16.02;;;;;;;;;;4977492;28;20046;-79
2021/12/15 07:40:24;;;;;;;25.83;15.50;;;;;;;;;;4990079;28;20033;-79
2021/12/15 07:43:07;;;;;;;27.13;16.10;;;;;;;;;;4980512;28;20508;-79
2021/12/15 07:45:43;;;;;;;27.60;15.98;;;;;;;;;;4982606;28;20061;-79
2021/12/15 07:48:12;;;;;;;29.50;17.00;;;;;;;;;;4988780;28;20503;-79
2021/12/15 07:50:41;;;;;;;25.70;14.98;;;;;;;;;;4993552;28;20046;-79
2021/12/15 07:53:08;;;;;;;31.52;18.63;;;;;;;;;;4993505;28;20034;-79
2021/12/15 07:55:35;;;;;;;29.67;16.52;;;;;;;;;;4993235;28;20397;-79
2021/12/15 07:58:04;;;;;;;33.17;20.23;;;;;;;;;;4978592;28;20031;-79
2021/12/15 08:00:30;;;;;;;33.78;18.52;;;;;;;;;;4977639;28;20058;-79
2021/12/15 08:02:56;;;;;;;36.20;19.88;;;;;;;;;;4983949;28;20043;-78
2021/12/15 08:05:24;;;;;;;33.55;19.05;;;;;;;;;;4983414;28;20043;-79
2021/12/15 08:07:50;;;;;;;29.38;17.70;;;;;;;;;;4992965;28;20484;-79
2021/12/15 08:10:17;;;;;;;31.65;18.23;;;;;;;;;;4980251;28;20397;-79
2021/12/15 08:12:45;;;;;;;32.97;18.70;;;;;;;;;;4985292;28;20049;-79
2021/12/15 08:15:12;;;;;;;30.73;18.00;;;;;;;;;;4991957;28;20045;-79
2021/12/15 08:17:40;;;;;;;30.33;17.88;;;;;;;;;;4993134;28;20511;-79
2021/12/15 08:20:09;;;;;;;30.10;16.63;;;;;;;;;;4986701;28;20520;-79
2021/12/15 08:22:37;;;;;;;28.42;17.30;;;;;;;;;;4992734;28;20384;-79
2021/12/15 08:25:06;;;;;;;27.63;16.13;;;;;;;;;;4986400;28;20053;-79
2021/12/15 08:27:32;;;;;;;26.02;15.65;;;;;;;;;;4992634;28;20714;-79
2021/12/15 08:30:01;;;;;;;28.40;15.23;;;;;;;;;;4992738;28;20038;-79
2021/12/15 08:32:27;;;;;;;26.40;15.43;;;;;;;;;;4982590;28;20512;-79
2021/12/15 08:34:53;;;;;;;24.83;14.80;;;;;;;;;;4993090;28;20050;-79
2021/12/15 08:37:20;;;;;;;28.02;15.50;;;;;;;;;;4993193;28;20058;-79
2021/12/15 08:39:46;;;;;;;28.20;16.00;;;;;;;;;;4992907;28;20082;-79
2021/12/15 08:42:13;;;;;;;27.30;15.43;;;;;;;;;;4992948;28;20038;-78
2021/12/15 08:44:39;;;;;;;25.30;15.43;;;;;;;;;;4990071;28;20053;-78
2021/12/15 08:47:07;;;;;;;24.90;15.23;;;;;;;;;;4989157;28;20705;-78
2021/12/15 08:49:34;;;;;;;27.70;16.17;;;;;;;;;;4984917;28;20047;-78
2021/12/15 08:52:01;;;;;;;27.10;16.00;;;;;;;;;;4991151;28;20491;-80
2021/12/15 08:54:27;;;;;;;24.67;14.77;;;;;;;;;;4993574;28;20038;-80
2021/12/15 08:56:55;;;;;;;25.20;14.40;;;;;;;;;;4994442;28;20034;-79
2021/12/15 08:59:21;;;;;;;28.05;16.02;;;;;;;;;;4992941;28;20066;-79
2021/12/15 09:01:49;;;;;;;25.17;14.85;;;;;;;;;;4992892;28;20050;-79
2021/12/15 09:04:15;;;;;;;25.42;15.35;;;;;;;;;;4993217;28;20049;-79
2021/12/15 09:06:43;;;;;;;22.75;14.48;;;;;;;;;;4992926;28;20034;-79
2021/12/15 09:09:15;;;;;;;24.73;15.02;;;;;;;;;;4991140;28;20932;-80
2021/12/15 09:11:41;;;;;;;;;;;;;;;;;;4992412;28;20038;-78
2021/12/15 09:14:10;;;;;;;24.45;14.50;;;;;;;;;;4990472;28;19918;-80
2021/12/15 09:16:36;;;;;;;25.90;14.32;;;;;;;;;;4994246;28;20042;-80
2021/12/15 09:19:04;;;;;;;24.38;14.75;;;;;;;;;;4991300;28;20034;-80
2021/12/15 09:21:32;;;;;;;24.23;13.82;;;;;;;;;;4991975;28;20042;-79
2021/12/15 09:24:01;;;;;;;25.63;14.75;;;;;;;;;;4993986;28;20049;-80
2021/12/15 09:26:27;;;;;;;22.27;13.80;;;;;;;;;;5007198;28;20492;-77
2021/12/15 09:28:54;;;;;;;24.25;13.05;;;;;;;;;;4991028;28;20054;-80
2021/12/15 09:31:22;;;;;;;21.23;12.82;;;;;;;;;;4992596;28;20047;-78
2021/12/15 09:33:51;;;;;;;24.25;12.88;;;;;;;;;;4990094;28;20058;-78
2021/12/15 09:36:19;;;;;;;22.15;12.95;;;;;;;;;;4983455;28;20489;-80
2021/12/15 09:38:49;;;;;;;20.75;12.55;;;;;;;;;;4975824;28;20047;-77
2021/12/15 09:41:17;;;;;;;20.73;12.40;;;;;;;;;;4993137;28;20034;-77
2021/12/15 09:43:44;;;;;;;21.90;12.07;;;;;;;;;;4993294;28;20045;-77
2021/12/15 09:46:30;;;;;;;19.88;11.85;;;;;;;;;;4989354;28;20057;-80
2021/12/15 10:02:43;;;;;;;23.27;13.52;;;;;;;;;;4992495;28;20035;-79
2021/12/15 10:11:12;;;;;;;23.95;13.85;;;;;;;;;;4985866;28;20042;-79
2021/12/15 10:19:32;;;;;;;21.33;12.77;;;;;;;;;;4993221;28;20038;-79
2021/12/15 10:22:38;;;;;;;21.45;13.15;;;;;;;;;;4990593;28;20174;-79
2021/12/15 10:25:07;;;;;;;21.48;13.23;;;;;;;;;;4991438;28;20065;-79
2021/12/15 10:27:43;;;;;;;22.63;13.10;;;;;;;;;;4981636;28;20489;-80
2021/12/15 10:30:22;;;;;;;22.17;14.07;;;;;;;;;;4985198;28;20058;-79
2021/12/15 10:32:56;;;;;;;21.23;13.35;;;;;;;;;;4986015;28;20042;-79
2021/12/15 10:35:38;;;;;;;22.05;13.45;;;;;;;;;;4978165;28;20061;-78
2021/12/15 10:38:10;;;;;;;19.67;12.93;;;;;;;;;;4975452;28;20366;-78
2021/12/15 10:40:42;;;;;;;62.33;34.05;;;;;;;;;;4993667;28;20046;-78
2021/12/15 10:43:08;;;;;;;30.02;18.73;;;;;;;;;;4996751;28;20038;-79
2021/12/15 10:45:37;;;;;;;19.88;12.52;;;;;;;;;;4997298;28;20030;-78
2021/12/15 10:48:09;;;;;;;20.10;13.00;;;;;;;;;;4995036;28;20041;-78
2021/12/15 10:50:37;;;;;;;20.25;12.48;;;;;;;;;;4991585;28;20055;-78
2021/12/15 10:53:03;;;;;;;22.23;13.35;;;;;;;;;;4998559;28;20030;-79
2021/12/15 10:55:32;;;;;;;19.23;12.38;;;;;;;;;;5003431;28;20433;-77
2021/12/15 10:58:00;;;;;;;20.55;12.73;;;;;;;;;;4983892;28;20047;-78
2021/12/15 11:00:33;;;;;;;20.33;13.00;;;;;;;;;;4993841;28;20681;-79
2021/12/15 11:03:06;;;;;;;22.83;13.75;;;;;;;;;;4985488;28;20102;-80
2021/12/15 11:05:32;;;;;;;23.88;15.20;;;;;;;;;;4991797;28;20039;-77
2021/12/15 11:07:59;;;;;;;26.42;14.02;;;;;;;;;;5000168;28;20049;-79
2021/12/15 11:10:33;;;;;;;21.35;12.73;;;;;;;;;;5000025;28;20027;-78
2021/12/15 11:13:08;;;;;;;21.85;13.23;;;;;;;;;;5013740;28;20038;-78
2021/12/15 11:15:41;;;;;;;21.52;12.55;;;;;;;;;;4997876;28;20043;-78
2021/12/15 11:18:12;;;;;;;22.30;12.38;;;;;;;;;;4985738;28;20041;-74
2021/12/15 11:20:41;;;;;;;20.20;12.43;;;;;;;;;;4999308;28;20027;-78
2021/12/15 11:23:21;;;;;;;20.98;13.07;;;;;;;;;;4999318;28;20023;-79
2021/12/15 11:25:48;;;;;;;14.93;9.73;;;;;;;;;;5007758;28;20040;-79
2021/12/15 11:28:22;;;;;;;15.50;9.30;;;;;;;;;;5014818;28;20030;-80
2021/12/15 11:31:15;;;;;;;15.65;9.00;;;;;;;;;;5020054;28;20037;-80
2021/12/15 11:34:00;;;;;;;13.07;8.57;;;;;;;;;;5016982;28;20053;-78
2021/12/15 11:36:43;;;;;;;14.95;8.82;;;;;;;;;;5007540;28;20515;-79
2021/12/15 11:39:25;;;;;;;14.77;8.10;;;;;;;;;;5014189;28;20052;-79
2021/12/15 11:41:53;;;;;;;28.17;16.48;;;;;;;;;;5012786;28;20218;-79
2021/12/15 11:44:23;;;;;;;32.35;20.25;;;;;;;;;;5009282;28;20033;-78
2021/12/15 11:46:53;;;;;;;14.10;8.48;;;;;;;;;;5017529;28;20032;-79
2021/12/15 11:49:29;;;;;;;12.75;8.23;;;;;;;;;;5004884;28;20033;-79
2021/12/15 11:51:59;;;;;;;14.75;8.90;;;;;;;;;;4999174;28;20475;-79
2021/12/15 11:54:30;;;;;;;13.68;8.10;;;;;;;;;;4998322;28;20376;-79
2021/12/15 11:57:02;;;;;;;15.57;8.57;;;;;;;;;;4999476;28;20473;-79
2021/12/15 11:59:30;;;;;;;14.82;8.57;;;;;;;;;;4998781;28;20454;-79
2021/12/15 12:01:59;;;;;;;16.55;9.82;;;;;;;;;;4996641;28;20038;-78
2021/12/15 12:04:41;;;;;;;16.67;8.88;;;;;;;;;;4997085;28;20042;-79
2021/12/15 12:07:28;;;;;;;14.70;9.07;;;;;;;;;;4980605;28;20078;-78
2021/12/15 12:10:23;;;;;;;16.45;8.85;;;;;;;;;;4977015;28;20097;-78
2021/12/15 12:12:55;;;;;;;14.05;7.90;;;;;;;;;;4961176;28;20043;-78
2021/12/15 12:15:27;;;;;;;14.40;8.48;;;;;;;;;;4978794;28;20066;-78
2021/12/15 12:17:57;;;;;;;13.57;8.57;;;;;;;;;;4996123;28;20065;-78
2021/12/15 12:20:42;;;;;;;12.23;7.07;;;;;;;;;;4994345;28;20038;-78
2021/12/15 12:23:10;;;;;;;12.88;7.15;;;;;;;;;;4995724;28;20046;-78
2021/12/15 12:25:41;;;;;;;17.50;8.27;;;;;;;;;;4995403;28;20038;-78
2021/12/15 12:28:11;;;;;;;14.48;7.65;;;;;;;;;;4995515;28;20389;-78
2021/12/15 12:30:40;;;;;;;13.55;8.32;;;;;;;;;;4994322;28;20045;-79
2021/12/15 12:33:09;;;;;;;23.50;10.10;;;;;;;;;;4994440;28;20050;-79
2021/12/15 12:35:42;;;;;;;18.15;11.25;;;;;;;;;;4993536;28;20050;-78
2021/12/15 12:38:12;;;;;;;17.35;11.02;;;;;;;;;;4988106;28;20047;-78
2021/12/15 12:40:52;;;;;;;20.13;11.60;;;;;;;;;;4978492;28;20039;-78
2021/12/15 12:43:19;;;;;;;16.98;10.63;;;;;;;;;;4977100;28;20126;-78
2021/12/15 12:45:57;;;;;;;17.95;11.63;;;;;;;;;;4985991;28;20042;-78
2021/12/15 12:48:47;;;;;;;17.52;10.95;;;;;;;;;;4982648;28;20030;-78
2021/12/15 12:59:25;;;;;;;14.55;7.95;;;;;;;;;;4973598;28;20038;-78
2021/12/15 13:01:52;;;;;;;15.00;8.13;;;;;;;;;;4992714;28;20511;-78
2021/12/15 13:04:18;;;;;;;13.20;7.60;;;;;;;;;;4992720;28;20042;-78
2021/12/15 13:06:44;;;;;;;13.65;7.65;;;;;;;;;;4993092;28;20111;-78
2021/12/15 13:09:16;;;;;;;13.73;8.18;;;;;;;;;;4993640;28;20030;-78
2021/12/15 13:11:47;;;;;;;13.55;8.05;;;;;;;;;;4993666;28;20065;-79
2021/12/15 13:14:15;;;;;;;;;;;;;;;;;;4993820;28;20046;-79
2021/12/15 13:16:54;;;;;;;13.63;8.00;;;;;;;;;;4992584;28;19914;-78
2021/12/15 13:19:23;;;;;;;13.20;8.35;;;;;;;;;;4974626;28;20050;-77
2021/12/15 13:22:15;;;;;;;15.65;9.07;;;;;;;;;;4973314;28;20050;-79
2021/12/15 13:30:50;;;;;;;17.75;10.23;;;;;;;;;;4974695;28;20035;-78
2021/12/15 13:33:42;;;;;;;17.90;10.23;;;;;;;;;;4991032;28;20046;-78
2021/12/15 13:36:20;;;;;;;14.73;9.23;;;;;;;;;;4994155;28;20030;-78
2021/12/15 13:38:48;;;;;;;19.00;10.75;;;;;;;;;;4988448;28;20049;-78
2021/12/15 13:41:21;;;;;;;22.88;13.15;;;;;;;;;;4991143;28;20047;-77
2021/12/15 13:43:55;;;;;;;15.65;8.77;;;;;;;;;;4990550;28;20047;-78
2021/12/15 13:46:41;;;;;;;16.05;9.32;;;;;;;;;;4994277;28;20046;-78
2021/12/15 13:49:19;;;;;;;17.77;10.02;;;;;;;;;;4973947;28;20049;-79
2021/12/15 13:52:09;;;;;;;16.50;9.82;;;;;;;;;;4973512;28;20042;-80
2021/12/15 13:54:35;;;;;;;19.42;9.20;;;;;;;;;;4974020;28;20198;-79
2021/12/15 13:57:15;;;;;;;16.20;9.50;;;;;;;;;;4973083;28;20127;-79
2021/12/15 13:59:53;;;;;;;20.00;9.85;;;;;;;;;;4973207;28;20046;-79
2021/12/15 14:02:23;;;;;;;17.35;9.80;;;;;;;;;;4972580;28;20039;-79
2021/12/15 14:05:04;;;;;;;16.27;9.55;;;;;;;;;;4972743;28;20070;-79
2021/12/15 14:07:30;;;;;;;;;;;;;;;;;;4983151;28;20038;-78
2021/12/15 14:09:57;;;;;;;13.23;8.40;;;;;;;;;;4991286;28;19917;-79
2021/12/15 14:12:44;;;;;;;15.23;9.15;;;;;;;;;;4976462;28;20053;-79
2021/12/15 14:15:38;;;;;;;20.58;10.18;;;;;;;;;;4972531;28;20497;-79
2021/12/15 14:18:22;;;;;;;18.95;10.02;;;;;;;;;;4982732;28;20065;-79
2021/12/15 14:20:59;;;;;;;17.50;9.55;;;;;;;;;;4992088;28;20034;-78
2021/12/15 14:23:39;;;;;;;17.65;10.10;;;;;;;;;;4991201;28;20041;-80
2021/12/15 14:26:13;;;;;;;19.10;10.45;;;;;;;;;;4986941;28;20058;-80
2021/12/15 14:28:42;;;;;;;22.13;13.00;;;;;;;;;;4989663;28;20038;-79
2021/12/15 14:31:16;;;;;;;20.17;10.38;;;;;;;;;;4985226;28;20485;-79
2021/12/15 14:33:46;;;;;;;22.80;12.07;;;;;;;;;;4990167;28;20034;-79
2021/12/15 14:36:14;;;;;;;21.02;11.15;;;;;;;;;;4989985;28;20484;-80
2021/12/15 14:38:40;;;;;;;22.23;10.52;;;;;;;;;;4988573;28;20480;-79
2021/12/15 14:41:11;;;;;;;18.15;10.48;;;;;;;;;;4978093;28;20038;-80
2021/12/15 14:43:38;;;;;;;19.65;11.10;;;;;;;;;;4989362;28;20049;-80
2021/12/15 14:46:14;;;;;;;23.80;11.50;;;;;;;;;;4991258;28;20038;-78
2021/12/15 14:48:40;;;;;;;19.17;11.27;;;;;;;;;;4998859;28;20049;-79
2021/12/15 14:51:06;;;;;;;17.83;9.90;;;;;;;;;;4991355;28;20461;-79
2021/12/15 14:53:42;;;;;;;17.17;9.80;;;;;;;;;;4991227;28;20061;-79
2021/12/15 14:56:08;;;;;;;19.48;10.70;;;;;;;;;;4989121;28;20354;-79
2021/12/15 14:58:35;;;;;;;17.92;10.20;;;;;;;;;;4971687;28;20062;-79
2021/12/15 15:01:01;;;;;;;18.80;10.23;;;;;;;;;;4974662;28;20027;-80
2021/12/15 15:03:27;;;;;;;19.85;10.45;;;;;;;;;;4981103;28;20029;-78
2021/12/15 15:05:53;;;;;;;21.38;11.50;;;;;;;;;;4977645;28;20397;-78
2021/12/15 15:08:31;;;;;;;17.58;11.63;;;;;;;;;;4988529;28;20033;-79
2021/12/15 15:10:59;;;;;;;18.10;11.18;;;;;;;;;;4991283;28;20038;-78
2021/12/15 15:13:26;;;;;;;19.48;10.52;;;;;;;;;;4982254;28;20489;-78
2021/12/15 15:15:57;;;;;;;18.58;10.38;;;;;;;;;;4991021;28;20049;-80
2021/12/15 15:18:30;;;;;;;18.80;11.23;;;;;;;;;;4981939;28;20053;-79
2021/12/15 15:21:00;;;;;;;19.30;12.40;;;;;;;;;;4978481;28;20046;-78
2021/12/15 15:23:33;;;;;;;18.30;11.17;;;;;;;;;;4980128;28;20058;-78
2021/12/15 15:26:01;;;;;;;24.38;13.63;;;;;;;;;;4981368;28;20039;-80
2021/12/15 15:28:31;;;;;;;22.50;11.95;;;;;;;;;;4973140;28;20485;-79
2021/12/15 15:31:01;;;;;;;18.73;10.27;;;;;;;;;;4971517;28;20042;-78
2021/12/15 15:33:33;;;;;;;21.83;12.02;;;;;;;;;;4972979;28;20038;-78
2021/12/15 15:36:19;;;;;;;20.95;11.90;;;;;;;;;;4973281;28;20478;-78
2021/12/15 15:38:56;;;;;;;15.98;10.48;;;;;;;;;;4973709;28;20473;-78
2021/12/15 15:41:34;;;;;;;15.88;9.57;;;;;;;;;;4974729;28;20042;-79
2021/12/15 15:44:06;;;;;;;18.52;11.15;;;;;;;;;;4974949;28;20039;-78
2021/12/15 15:46:41;;;;;;;17.10;9.93;;;;;;;;;;4975008;28;20054;-78
2021/12/15 15:49:15;;;;;;;16.92;10.23;;;;;;;;;;4975024;28;20043;-78
2021/12/15 15:51:45;;;;;;;22.92;13.88;;;;;;;;;;4974922;28;20043;-79
2021/12/15 15:54:17;;;;;;;21.17;12.75;;;;;;;;;;4974530;28;20123;-78
2021/12/15 15:56:44;;;;;;;24.52;13.35;;;;;;;;;;4975012;28;20047;-78
2021/12/15 15:59:14;;;;;;;19.27;10.90;;;;;;;;;;4975333;28;20053;-82
2021/12/15 16:01:44;;;;;;;17.63;10.48;;;;;;;;;;4974379;28;20043;-76
2021/12/15 16:04:12;;;;;;;18.58;10.73;;;;;;;;;;4974438;28;20039;-79
2021/12/15 16:06:40;;;;;;;16.77;10.00;;;;;;;;;;4980281;28;20485;-79
2021/12/15 16:09:11;;;;;;;20.38;11.63;;;;;;;;;;4978020;28;20047;-79
2021/12/15 16:11:41;;;;;;;21.27;11.48;;;;;;;;;;4984452;28;20042;-78